createdAt,value
2022-09-20T00:01:09.628Z,3.20
2022-09-20T00:03:38.218Z,1.50
2022-09-20T00:06:09.806Z,3.33
2022-09-20T00:08:38.565Z,3.97
2022-09-20T00:11:09.301Z,4.63
2022-09-20T00:13:38.364Z,1.53
2022-09-20T00:16:07.492Z,1.93
2022-09-20T00:18:37.182Z,3.13
2022-09-20T00:21:06.104Z,2.07
2022-09-20T00:23:34.692Z,2.30
2022-09-20T00:26:04.642Z,2.13
2022-09-20T00:28:33.640Z,2.37
2022-09-20T00:31:02.029Z,1.67
2022-09-20T00:33:50.152Z,1.73
2022-09-20T00:36:18.342Z,3.07
2022-09-20T00:38:46.236Z,3.73
2022-09-20T00:41:14.044Z,2.47
2022-09-20T00:43:44.069Z,3.70
2022-09-20T00:46:21.995Z,2.13
2022-09-20T00:48:50.723Z,1.60
2022-09-20T00:51:27.956Z,2.30
2022-09-20T00:53:57.186Z,2.43
2022-09-20T00:56:28.079Z,4.77
2022-09-20T00:59:02.800Z,2.80
2022-09-20T01:01:31.841Z,2.73
2022-09-20T01:04:00.859Z,2.30
2022-09-20T01:06:31.488Z,2.20
2022-09-20T01:09:02.710Z,2.57
2022-09-20T01:11:31.953Z,2.37
2022-09-20T01:13:59.899Z,3.03
2022-09-20T01:16:29.109Z,3.43
2022-09-20T01:18:59.499Z,1.83
2022-09-20T01:21:29.713Z,2.93
2022-09-20T01:24:05.382Z,5.07
2022-09-20T01:26:50.653Z,2.33
2022-09-20T01:29:32.757Z,3.53
2022-09-20T01:32:04.208Z,3.40
2022-09-20T01:34:36.268Z,4.40
2022-09-20T01:37:10.574Z,5.87
2022-09-20T01:39:48.683Z,7.20
2022-09-20T01:42:16.597Z,3.83
2022-09-20T01:44:55.590Z,3.40
2022-09-20T01:47:30.852Z,1.47
2022-09-20T01:50:09.289Z,3.43
2022-09-20T01:53:04.903Z,4.63
2022-09-20T01:55:57.635Z,3.17
2022-09-20T01:59:22.773Z,1.70
2022-09-20T02:02:11.285Z,3.63
2022-09-20T02:05:05.376Z,2.30
2022-09-20T02:07:52.263Z,5.97
2022-09-20T02:10:48.762Z,2.23
2022-09-20T02:13:29.333Z,2.93
2022-09-20T02:16:21.853Z,2.70
2022-09-20T02:19:14.207Z,2.40
2022-09-20T02:21:48.492Z,1.27
2022-09-20T02:24:23.993Z,2.10
2022-09-20T02:27:08.694Z,3.23
2022-09-20T02:29:47.099Z,2.17
2022-09-20T02:32:30.091Z,2.10
2022-09-20T02:35:31.457Z,4.07
2022-09-20T02:38:11.407Z,4.03
2022-09-20T02:41:05.151Z,2.27
2022-09-20T02:43:40.107Z,3.20
2022-09-20T02:46:14.555Z,6.07
2022-09-20T02:48:49.254Z,5.57
2022-09-20T02:51:25.657Z,5.47
2022-09-20T02:54:02.620Z,5.57
2022-09-20T02:56:39.355Z,3.23
2022-09-20T02:59:17.684Z,3.87
2022-09-20T03:01:51.987Z,4.30
2022-09-20T03:04:32.191Z,2.83
2022-09-20T03:07:10.706Z,5.93
2022-09-20T03:09:45.689Z,5.00
2022-09-20T03:12:24.600Z,5.13
2022-09-20T03:15:01.300Z,7.63
2022-09-20T03:17:42.377Z,6.20
2022-09-20T03:20:24.621Z,4.90
2022-09-20T03:23:02.151Z,6.20
2022-09-20T03:25:47.790Z,5.57
2022-09-20T03:28:28.099Z,3.77
2022-09-20T03:31:05.740Z,3.40
2022-09-20T03:33:43.692Z,3.40
2022-09-20T03:36:29.561Z,6.63
2022-09-20T03:39:24.717Z,3.57
2022-09-20T03:42:08.863Z,4.20
2022-09-20T03:45:13.065Z,4.27
2022-09-20T03:48:13.470Z,4.17
2022-09-20T03:50:51.453Z,2.07
2022-09-20T03:53:48.595Z,4.83
2022-09-20T03:56:46.093Z,2.27
2022-09-20T03:59:37.138Z,3.83
2022-09-20T04:02:21.372Z,3.20
2022-09-20T04:04:54.507Z,3.60
2022-09-20T04:07:30.975Z,3.70
2022-09-20T04:10:13.652Z,2.53
2022-09-20T04:12:51.631Z,4.20
2022-09-20T04:15:30.274Z,3.23
2022-09-20T04:18:03.630Z,4.00
2022-09-20T04:20:40.885Z,4.53
2022-09-20T04:23:23.740Z,3.80
2022-09-20T04:25:52.598Z,2.67
2022-09-20T04:28:27.686Z,3.80
2022-09-20T04:31:04.845Z,5.53
2022-09-20T04:33:40.875Z,4.43
2022-09-20T04:36:30.104Z,3.37
2022-09-20T04:39:12.214Z,3.00
2022-09-20T04:42:16.250Z,5.13
2022-09-20T04:45:15.682Z,3.90
2022-09-20T04:48:27.068Z,5.07
2022-09-20T04:51:34.356Z,3.20
2022-09-20T04:54:46.433Z,3.80
2022-09-20T04:57:41.914Z,3.07
2022-09-20T05:00:14.913Z,3.40
2022-09-20T05:03:10.536Z,7.70
2022-09-20T05:06:15.582Z,3.40
2022-09-20T05:09:23.774Z,3.87
2022-09-20T05:12:29.953Z,4.50
2022-09-20T05:15:17.309Z,2.87
2022-09-20T05:18:10.852Z,5.47
2022-09-20T05:20:51.681Z,4.40
2022-09-20T05:23:46.174Z,3.23
2022-09-20T05:26:19.359Z,4.87
2022-09-20T05:28:57.053Z,3.13
2022-09-20T05:31:38.108Z,3.70
2022-09-20T05:34:16.399Z,3.57
2022-09-20T05:36:56.173Z,2.50
2022-09-20T05:39:34.749Z,4.67
2022-09-20T05:42:12.578Z,4.93
2022-09-20T05:44:58.653Z,5.63
2022-09-20T05:47:37.025Z,5.43
2022-09-20T05:50:19.200Z,7.20
2022-09-20T05:52:57.828Z,4.47
2022-09-20T05:55:50.191Z,4.70
2022-09-20T05:58:29.350Z,6.97
2022-09-20T06:01:03.205Z,13.73
2022-09-20T06:03:37.999Z,20.77
2022-09-20T06:06:13.465Z,17.37
2022-09-20T06:09:02.957Z,7.40
2022-09-20T06:11:46.691Z,3.90
2022-09-20T06:14:22.827Z,4.17
2022-09-20T06:17:00.243Z,6.37
2022-09-20T06:19:37.757Z,10.00
2022-09-20T06:22:13.955Z,5.87
2022-09-20T06:24:47.365Z,4.83
2022-09-20T06:27:19.580Z,18.20
2022-09-20T06:29:54.007Z,5.67
2022-09-20T06:32:21.769Z,5.93
2022-09-20T06:34:51.147Z,4.67
2022-09-20T06:38:01.178Z,3.87
2022-09-20T06:40:56.240Z,4.40
2022-09-20T06:43:24.017Z,7.57
2022-09-20T06:45:51.815Z,5.53
2022-09-20T06:48:19.800Z,6.20
2022-09-20T06:50:49.859Z,16.07
2022-09-20T06:53:20.470Z,11.13
2022-09-20T06:55:48.795Z,8.30
2022-09-20T06:58:16.557Z,5.63
2022-09-20T07:00:44.469Z,8.43
2022-09-20T07:03:13.447Z,6.47
2022-09-20T07:05:41.611Z,6.03
2022-09-20T07:08:10.797Z,8.37
2022-09-20T07:10:38.761Z,10.07
2022-09-20T07:13:06.848Z,7.70
2022-09-20T07:15:39.540Z,6.83
2022-09-20T07:18:07.754Z,6.93
2022-09-20T07:20:35.644Z,7.07
2022-09-20T07:23:03.716Z,6.40
2022-09-20T07:25:33.302Z,4.83
2022-09-20T07:28:01.118Z,8.63
2022-09-20T07:30:28.958Z,6.23
2022-09-20T07:32:56.722Z,7.43
2022-09-20T07:35:24.488Z,5.43
2022-09-20T07:37:57.963Z,10.47
2022-09-20T07:40:27.350Z,6.20
2022-09-20T07:42:57.386Z,9.17
2022-09-20T07:45:25.221Z,6.13
2022-09-20T07:47:53.534Z,5.67
2022-09-20T07:50:22.026Z,6.33
2022-09-20T07:52:49.813Z,7.97
2022-09-20T07:55:17.969Z,5.27
2022-09-20T07:57:45.744Z,4.90
2022-09-20T08:00:15.227Z,5.87
2022-09-20T08:02:44.537Z,7.53
2022-09-20T08:05:12.634Z,5.60
2022-09-20T08:07:40.529Z,4.67
2022-09-20T08:10:09.154Z,7.97
2022-09-20T08:15:26.484Z,8.83
2022-09-20T08:17:54.694Z,8.80
2022-09-20T08:20:22.496Z,9.33
2022-09-20T08:23:12.746Z,7.93
2022-09-20T08:25:38.295Z,7.27
2022-09-20T08:28:06.184Z,7.33
2022-09-20T08:30:35.301Z,6.93
2022-09-20T08:33:04.858Z,6.17
2022-09-20T08:35:32.727Z,5.20
2022-09-20T08:39:57.199Z,7.57
2022-09-20T08:40:49.338Z,7.03
2022-09-20T08:43:22.228Z,7.37
2022-09-20T08:45:51.839Z,5.43
2022-09-20T08:48:21.884Z,8.07
2022-09-20T08:50:50.550Z,6.90
2022-09-20T08:53:21.224Z,6.63
2022-09-20T08:55:49.855Z,6.90
2022-09-20T08:58:19.124Z,4.43
2022-09-20T09:00:48.044Z,5.63
2022-09-20T09:03:18.670Z,10.40
2022-09-20T09:05:48.215Z,7.47
2022-09-20T09:08:18.607Z,5.97
2022-09-20T09:10:49.097Z,7.33
2022-09-20T09:13:25.699Z,9.40
2022-09-20T09:15:57.876Z,8.90
2022-09-20T09:18:34.817Z,7.30
2022-09-20T09:21:05.179Z,7.87
2022-09-20T09:23:41.878Z,7.90
2022-09-20T09:26:18.805Z,3.00
2022-09-20T09:28:46.630Z,5.83
2022-09-20T09:31:23.266Z,4.40
2022-09-20T09:33:52.987Z,6.33
2022-09-20T09:36:25.270Z,6.37
2022-09-20T09:39:18.147Z,6.40
2022-09-20T09:41:46.548Z,8.57
2022-09-20T09:44:23.215Z,5.30
2022-09-20T09:46:53.449Z,7.67
2022-09-20T09:49:24.685Z,2.17
2022-09-20T09:52:05.505Z,4.73
2022-09-20T09:54:37.268Z,3.73
2022-09-20T09:57:24.292Z,5.20
2022-09-20T10:00:06.546Z,7.10
2022-09-20T10:02:57.766Z,3.90
2022-09-20T10:05:33.852Z,3.60
2022-09-20T10:08:18.073Z,3.83
2022-09-20T10:10:59.439Z,2.33
2022-09-20T10:13:34.232Z,6.37
2022-09-20T10:16:13.319Z,3.57
2022-09-20T10:18:49.565Z,5.60
2022-09-20T10:21:41.304Z,3.27
2022-09-20T10:24:30.181Z,3.03
2022-09-20T10:27:20.007Z,1.97
2022-09-20T10:30:01.555Z,5.37
2022-09-20T10:32:49.934Z,4.17
2022-09-20T10:35:25.713Z,1.50
2022-09-20T10:38:19.599Z,5.00
2022-09-20T10:41:27.897Z,2.77
2022-09-20T10:44:16.598Z,3.73
2022-09-20T10:46:53.540Z,5.13
2022-09-20T10:49:28.163Z,3.77
2022-09-20T10:52:21.133Z,4.63
2022-09-20T10:55:03.530Z,5.17
2022-09-20T10:58:10.366Z,4.17
2022-09-20T11:00:48.663Z,2.60
2022-09-20T11:03:33.070Z,2.80
2022-09-20T11:06:16.214Z,3.03
2022-09-20T11:08:44.951Z,5.40
2022-09-20T11:11:19.944Z,12.00
2022-09-20T11:13:56.392Z,2.73
2022-09-20T11:16:29.168Z,2.63
2022-09-20T11:19:01.016Z,3.37
2022-09-20T11:21:33.597Z,3.53
2022-09-20T11:24:05.347Z,4.60
2022-09-20T11:26:39.585Z,2.87
2022-09-20T11:29:19.601Z,2.73
2022-09-20T11:31:51.475Z,2.53
2022-09-20T11:34:26.793Z,4.37
2022-09-20T11:36:58.725Z,4.47
2022-09-20T11:39:31.220Z,4.60
2022-09-20T11:42:01.507Z,4.73
2022-09-20T11:44:29.738Z,4.30
2022-09-20T11:47:04.245Z,3.63
2022-09-20T11:49:59.740Z,3.13
2022-09-20T11:52:48.269Z,4.10
2022-09-20T11:55:26.722Z,6.10
2022-09-20T11:58:04.836Z,2.87
2022-09-20T12:00:36.312Z,1.77
2022-09-20T12:03:07.503Z,2.77
2022-09-20T12:05:39.621Z,3.57
2022-09-20T12:08:09.700Z,2.60
2022-09-20T12:10:40.356Z,3.20
2022-09-20T12:13:23.436Z,4.37
2022-09-20T12:16:00.487Z,4.77
2022-09-20T12:18:32.992Z,4.03
2022-09-20T12:21:16.011Z,1.40
2022-09-20T12:24:09.228Z,6.03
2022-09-20T12:26:43.451Z,2.50
2022-09-20T12:29:53.028Z,3.33
2022-09-20T12:32:44.858Z,2.27
2022-09-20T12:35:59.267Z,3.47
2022-09-20T12:38:34.020Z,2.10
2022-09-20T12:41:04.802Z,3.03
2022-09-20T12:43:34.479Z,2.63
2022-09-20T12:46:06.339Z,2.07
2022-09-20T12:48:39.134Z,4.77
2022-09-20T12:51:37.828Z,3.90
2022-09-20T12:54:08.075Z,3.33
2022-09-20T12:56:37.374Z,2.77
2022-09-20T12:59:07.395Z,3.23
2022-09-20T13:01:39.160Z,5.90
2022-09-20T13:04:52.337Z,2.60
2022-09-20T13:07:44.516Z,3.70
2022-09-20T13:10:34.919Z,3.43
2022-09-20T13:13:26.840Z,4.33
2022-09-20T13:15:55.313Z,2.20
2022-09-20T13:18:26.314Z,3.47
2022-09-20T13:20:56.542Z,5.17
2022-09-20T13:23:28.370Z,4.60
2022-09-20T13:25:58.598Z,2.57
2022-09-20T13:28:32.929Z,2.47
2022-09-20T13:31:24.990Z,1.73
2022-09-20T13:33:53.061Z,2.90
2022-09-20T13:36:28.046Z,3.60
2022-09-20T13:38:57.917Z,4.03
2022-09-20T13:41:31.296Z,2.33
2022-09-20T13:43:59.109Z,1.60
2022-09-20T13:46:31.036Z,5.50
2022-09-20T13:49:17.507Z,5.67
2022-09-20T13:51:46.612Z,3.70
2022-09-20T13:54:28.395Z,1.87
2022-09-20T13:56:59.806Z,2.13
2022-09-20T13:59:33.930Z,1.97
2022-09-20T14:02:01.952Z,1.40
2022-09-20T14:04:32.083Z,2.27
2022-09-20T14:07:02.930Z,1.10
2022-09-20T14:09:34.940Z,2.53
2022-09-20T14:12:05.530Z,1.27
2022-09-20T14:14:35.730Z,3.20
2022-09-20T14:17:08.699Z,3.40
2022-09-20T14:19:41.897Z,2.30
2022-09-20T14:22:20.068Z,2.40
2022-09-20T14:24:59.941Z,2.40
2022-09-20T14:27:29.421Z,1.33
2022-09-20T14:29:57.299Z,2.70
2022-09-20T14:32:38.217Z,3.33
2022-09-20T14:35:13.891Z,2.67
2022-09-20T14:37:46.324Z,1.90
2022-09-20T14:40:26.386Z,1.47
2022-09-20T14:42:59.555Z,2.53
2022-09-20T14:45:30.808Z,3.37
2022-09-20T14:48:10.358Z,1.83
2022-09-20T14:50:40.702Z,3.20
2022-09-20T14:53:29.522Z,5.47
2022-09-20T14:56:08.761Z,2.03
2022-09-20T14:59:08.283Z,1.97
2022-09-20T15:01:38.911Z,2.17
2022-09-20T15:04:10.809Z,2.57
2022-09-20T15:06:40.112Z,3.17
2022-09-20T15:09:12.150Z,3.47
2022-09-20T15:11:40.700Z,1.67
2022-09-20T15:14:08.677Z,2.27
2022-09-20T15:16:36.734Z,3.60
2022-09-20T15:19:05.773Z,6.93
2022-09-20T15:21:33.572Z,2.67
2022-09-20T15:24:01.478Z,1.43
2022-09-20T15:26:31.535Z,3.10
2022-09-20T15:29:00.623Z,3.27
2022-09-20T15:31:28.689Z,1.73
2022-09-20T15:33:56.569Z,2.87
2022-09-20T15:36:24.318Z,5.87
2022-09-20T15:38:54.628Z,3.23
2022-09-20T15:41:22.471Z,1.70
2022-09-20T15:43:51.775Z,3.43
2022-09-20T15:46:21.433Z,3.93
2022-09-20T15:48:49.776Z,3.23
2022-09-20T15:51:17.698Z,3.57
2022-09-20T15:53:48.647Z,4.47
2022-09-20T15:56:21.037Z,2.03
2022-09-20T15:58:51.938Z,3.00
2022-09-20T16:01:20.556Z,1.20
2022-09-20T16:03:48.953Z,1.83
2022-09-20T16:06:16.749Z,2.57
2022-09-20T16:08:44.558Z,2.03
2022-09-20T16:11:17.246Z,5.13
2022-09-20T16:13:47.738Z,3.50
2022-09-20T16:16:17.778Z,2.83
2022-09-20T16:19:03.298Z,2.43
2022-09-20T16:21:31.892Z,2.63
2022-09-20T16:24:00.321Z,5.30
2022-09-20T16:26:29.327Z,6.60
2022-09-20T16:28:57.755Z,4.00
2022-09-20T16:31:32.759Z,5.57
2022-09-20T16:34:01.382Z,2.93
2022-09-20T16:36:29.243Z,5.40
2022-09-20T16:38:57.438Z,3.33
2022-09-20T16:41:26.030Z,3.53
2022-09-20T16:43:54.544Z,4.87
2022-09-20T16:46:25.072Z,2.30
2022-09-20T16:48:54.901Z,4.53
2022-09-20T16:51:24.884Z,5.83
2022-09-20T16:53:53.333Z,3.07
2022-09-20T16:56:27.225Z,2.20
2022-09-20T16:58:55.602Z,3.90
2022-09-20T17:01:23.881Z,4.80
2022-09-20T17:03:51.851Z,5.67
2022-09-20T17:06:21.257Z,2.57
2022-09-20T17:08:56.779Z,4.67
2022-09-20T17:11:28.254Z,7.37
2022-09-20T17:13:57.107Z,4.50
2022-09-20T17:16:27.676Z,5.17
2022-09-20T17:18:56.609Z,8.07
2022-09-20T17:21:26.891Z,13.07
2022-09-20T17:23:56.729Z,14.47
2022-09-20T17:26:26.290Z,11.43
2022-09-20T17:28:56.224Z,10.17
2022-09-20T17:31:28.578Z,12.70
2022-09-20T17:33:59.879Z,16.00
2022-09-20T17:36:30.578Z,17.70
2022-09-20T17:39:03.862Z,35.30
2022-09-20T17:41:32.507Z,10.13
2022-09-20T17:44:02.580Z,7.50
2022-09-20T17:46:32.402Z,7.90
2022-09-20T17:49:01.949Z,5.83
2022-09-20T17:51:33.375Z,7.43
2022-09-20T17:54:01.470Z,9.17
2022-09-20T17:56:30.871Z,10.27
2022-09-20T17:58:59.499Z,15.83
2022-09-20T18:01:28.440Z,21.70
2022-09-20T18:03:58.562Z,12.93
2022-09-20T18:06:29.330Z,8.50
2022-09-20T18:09:01.159Z,7.53
2022-09-20T18:11:31.633Z,8.20
2022-09-20T18:13:59.806Z,7.70
2022-09-20T18:16:27.663Z,10.60
2022-09-20T18:18:55.949Z,14.03
2022-09-20T18:21:25.950Z,20.20
2022-09-20T18:23:55.379Z,23.00
2022-09-20T18:26:26.423Z,30.07
2022-09-20T18:29:00.193Z,21.93
2022-09-20T18:31:32.174Z,14.07
2022-09-20T18:34:01.126Z,10.93
2022-09-20T18:36:30.044Z,9.83
2022-09-20T18:38:59.439Z,11.27
2022-09-20T18:41:31.797Z,8.57
2022-09-20T18:44:00.595Z,9.13
2022-09-20T18:46:30.854Z,8.37
2022-09-20T18:49:02.086Z,7.37
2022-09-20T18:51:30.177Z,7.23
2022-09-20T18:53:58.878Z,6.50
2022-09-20T18:56:29.340Z,5.23
2022-09-20T18:58:58.682Z,6.43
2022-09-20T19:02:06.317Z,10.30
2022-09-20T19:05:01.159Z,6.63
2022-09-20T19:07:37.818Z,6.20
2022-09-20T19:10:12.983Z,7.53
2022-09-20T19:12:49.435Z,7.73
2022-09-20T19:15:34.723Z,7.47
2022-09-20T19:18:13.335Z,9.00
2022-09-20T19:20:47.142Z,9.87
2022-09-20T19:23:32.642Z,5.97
2022-09-20T19:26:08.300Z,8.53
2022-09-20T19:28:38.201Z,6.20
2022-09-20T19:31:06.627Z,6.57
2022-09-20T19:33:34.856Z,6.33
2022-09-20T19:36:03.675Z,9.47
2022-09-20T19:38:41.068Z,9.10
2022-09-20T19:41:27.425Z,7.40
2022-09-20T19:44:09.695Z,7.27
2022-09-20T19:46:48.148Z,9.17
2022-09-20T19:49:21.486Z,7.27
2022-09-20T19:51:49.832Z,8.27
2022-09-20T19:54:18.691Z,6.80
2022-09-20T19:56:52.824Z,6.73
2022-09-20T19:59:23.746Z,6.93
2022-09-20T20:01:52.417Z,8.87
2022-09-20T20:04:21.092Z,8.37
2022-09-20T20:06:59.102Z,7.43
2022-09-20T20:09:37.519Z,5.90
2022-09-20T20:12:14.492Z,5.83
2022-09-20T20:14:54.446Z,5.23
2022-09-20T20:17:44.971Z,5.00
2022-09-20T20:20:20.706Z,5.63
2022-09-20T20:23:17.406Z,7.00
2022-09-20T20:25:53.416Z,7.27
2022-09-20T20:28:21.318Z,7.57
2022-09-20T20:30:50.517Z,7.27
2022-09-20T20:33:18.846Z,4.80
2022-09-20T20:35:53.537Z,5.10
2022-09-20T20:38:22.126Z,5.13
2022-09-20T20:40:49.915Z,7.63
2022-09-20T20:43:18.306Z,7.20
2022-09-20T20:45:52.070Z,8.30
2022-09-20T20:49:18.715Z,7.00
2022-09-20T20:51:47.439Z,6.77
2022-09-20T20:54:15.579Z,8.63
2022-09-20T20:56:43.882Z,6.27
2022-09-20T20:59:11.757Z,6.27
2022-09-20T21:01:42.718Z,6.17
2022-09-20T21:04:11.270Z,5.37
2022-09-20T21:06:40.994Z,6.20
2022-09-20T21:09:09.769Z,8.00
2022-09-20T21:11:39.034Z,5.97
2022-09-20T21:14:08.991Z,5.30
2022-09-20T21:16:38.587Z,7.30
2022-09-20T21:19:09.472Z,5.17
2022-09-20T21:21:39.048Z,5.10
2022-09-20T21:24:08.847Z,5.97
2022-09-20T21:26:38.070Z,5.70
2022-09-20T21:29:08.078Z,4.77
2022-09-20T21:31:39.575Z,6.27
2022-09-20T21:34:10.124Z,6.60
2022-09-20T21:36:38.910Z,4.30
2022-09-20T21:39:07.056Z,4.80
2022-09-20T21:41:36.693Z,4.43
2022-09-20T21:44:06.183Z,3.63
2022-09-20T21:46:35.864Z,4.57
2022-09-20T21:49:05.220Z,5.87
2022-09-20T21:51:35.477Z,3.57
2022-09-20T21:54:04.113Z,5.43
2022-09-20T21:56:33.623Z,6.63
2022-09-20T21:59:03.980Z,4.17
2022-09-20T22:01:34.896Z,4.13
2022-09-20T22:04:06.903Z,6.33
2022-09-20T22:06:37.556Z,5.80
2022-09-20T22:09:07.409Z,4.73
2022-09-20T22:11:38.842Z,4.67
2022-09-20T22:14:07.572Z,4.23
2022-09-20T22:16:37.887Z,5.83
2022-09-20T22:19:07.891Z,5.30
2022-09-20T22:21:38.952Z,5.57
2022-09-20T22:24:09.248Z,6.60
2022-09-20T22:26:38.961Z,5.30
2022-09-20T22:29:07.700Z,7.30
2022-09-20T22:31:37.107Z,5.03
2022-09-20T22:34:07.130Z,5.47
2022-09-20T22:36:38.578Z,7.90
2022-09-20T22:39:08.320Z,8.67
2022-09-20T22:41:36.589Z,7.17
2022-09-20T22:44:04.421Z,8.43
2022-09-20T22:46:33.226Z,7.97
2022-09-20T22:49:01.068Z,7.40
2022-09-20T22:51:33.133Z,8.50
2022-09-20T22:54:06.794Z,7.43
2022-09-20T22:56:34.745Z,9.50
2022-09-20T22:59:06.657Z,10.97
2022-09-20T23:01:36.497Z,6.30
2022-09-20T23:04:07.609Z,7.43
2022-09-20T23:06:37.684Z,8.40
2022-09-20T23:09:08.843Z,6.10
2022-09-20T23:11:37.437Z,7.10
2022-09-20T23:14:06.846Z,9.27
2022-09-20T23:16:36.441Z,7.33
2022-09-20T23:19:06.176Z,10.87
2022-09-20T23:21:35.121Z,9.00
2022-09-20T23:24:04.392Z,7.70
2022-09-20T23:26:35.506Z,6.77
2022-09-20T23:29:05.531Z,7.03
2022-09-20T23:31:36.362Z,12.93
2022-09-20T23:34:06.604Z,18.47
2022-09-20T23:36:36.918Z,11.23
2022-09-20T23:39:05.292Z,6.10
2022-09-20T23:41:36.473Z,7.60
2022-09-20T23:44:04.847Z,5.67
2022-09-20T23:46:33.209Z,5.40
2022-09-20T23:49:01.233Z,4.73
2022-09-20T23:51:30.660Z,5.43
2022-09-20T23:53:58.648Z,3.43
2022-09-20T23:56:26.758Z,4.23
2022-09-20T23:58:55.944Z,5.70
